createdAt,value
2019-02-23T00:00:53.084Z,23.10
2019-02-23T00:01:53.098Z,23.70
2019-02-23T00:02:53.074Z,22.20
2019-02-23T00:03:53.053Z,23.00
2019-02-23T00:04:53.057Z,23.80
2019-02-23T00:05:53.033Z,23.30
2019-02-23T00:06:53.018Z,22.80
2019-02-23T00:07:53.026Z,24.90
2019-02-23T00:08:52.994Z,23.30
2019-02-23T00:09:52.986Z,22.70
2019-02-23T00:10:52.986Z,23.50
2019-02-23T00:11:52.973Z,22.50
2019-02-23T00:12:52.973Z,22.60
2019-02-23T00:13:52.942Z,22.50
2019-02-23T00:14:52.935Z,22.50
2019-02-23T00:15:52.917Z,23.10
2019-02-23T00:16:52.940Z,22.00
2019-02-23T00:17:52.927Z,22.30
2019-02-23T00:18:52.900Z,22.30
2019-02-23T00:19:52.882Z,22.50
2019-02-23T00:20:52.878Z,23.30
2019-02-23T00:21:52.862Z,22.10
2019-02-23T00:22:52.854Z,22.60
2019-02-23T00:23:53.041Z,23.00
2019-02-23T00:26:02.021Z,24.90
2019-02-23T00:27:03.011Z,22.80
2019-02-23T00:28:03.024Z,22.20
2019-02-23T00:29:02.981Z,22.40
2019-02-23T00:30:03.156Z,23.10
2019-02-23T00:31:02.967Z,21.60
2019-02-23T00:32:02.950Z,21.90
2019-02-23T00:33:02.965Z,23.20
2019-02-23T00:34:02.934Z,20.60
2019-02-23T00:35:02.914Z,22.00
2019-02-23T00:36:02.905Z,21.90
2019-02-23T00:37:02.892Z,22.50
2019-02-23T00:38:02.908Z,23.20
2019-02-23T00:39:02.874Z,22.40
2019-02-23T00:40:02.863Z,23.70
2019-02-23T00:41:02.839Z,21.60
2019-02-23T00:42:03.764Z,22.10
2019-02-23T00:43:02.851Z,22.00
2019-02-23T00:44:02.815Z,21.60
2019-02-23T00:45:02.816Z,21.90
2019-02-23T00:46:02.806Z,21.90
2019-02-23T00:47:02.790Z,20.90
2019-02-23T00:48:02.790Z,23.00
2019-02-23T00:49:02.776Z,20.60
2019-02-23T00:50:02.756Z,20.70
2019-02-23T00:51:02.731Z,21.40
2019-02-23T00:52:02.738Z,21.10
2019-02-23T00:53:02.734Z,19.60
2019-02-23T00:54:02.723Z,21.10
2019-02-23T00:55:02.699Z,20.40
2019-02-23T00:56:02.680Z,21.10
2019-02-23T00:57:02.688Z,20.50
2019-02-23T00:58:02.702Z,21.70
2019-02-23T00:59:02.648Z,22.50
2019-02-23T01:00:02.669Z,22.00
2019-02-23T01:01:02.635Z,20.50
2019-02-23T01:02:02.623Z,21.80
2019-02-23T01:03:02.625Z,22.80
2019-02-23T01:04:02.598Z,22.70
2019-02-23T01:05:02.578Z,22.70
2019-02-23T01:06:02.577Z,21.20
2019-02-23T01:07:02.566Z,21.90
2019-02-23T01:08:02.571Z,22.20
2019-02-23T01:09:02.552Z,21.90
2019-02-23T01:10:02.526Z,22.50
2019-02-23T01:11:02.514Z,22.70
2019-02-23T01:12:02.530Z,22.30
2019-02-23T01:13:02.518Z,22.30
2019-02-23T01:14:02.489Z,22.10
2019-02-23T01:15:02.470Z,22.00
2019-02-23T01:16:02.453Z,23.10
2019-02-23T01:17:02.445Z,22.90
2019-02-23T01:18:02.459Z,21.60
2019-02-23T01:19:02.424Z,24.40
2019-02-23T01:20:02.417Z,22.30
2019-02-23T01:21:02.413Z,21.30
2019-02-23T01:22:02.400Z,23.80
2019-02-23T01:23:02.405Z,25.70
2019-02-23T01:24:02.366Z,24.60
2019-02-23T01:25:02.362Z,23.40
2019-02-23T01:26:02.372Z,22.90
2019-02-23T01:27:02.338Z,24.20
2019-02-23T01:28:02.340Z,22.40
2019-02-23T01:29:02.315Z,24.70
2019-02-23T01:30:02.342Z,24.00
2019-02-23T01:31:02.301Z,23.70
2019-02-23T01:32:02.292Z,24.20
2019-02-23T01:33:02.289Z,23.40
2019-02-23T01:34:02.259Z,25.80
2019-02-23T01:35:02.255Z,23.60
2019-02-23T01:36:02.238Z,26.80
2019-02-23T01:37:02.261Z,24.90
2019-02-23T01:38:02.243Z,24.80
2019-02-23T01:39:02.211Z,25.60
2019-02-23T01:40:02.193Z,24.50
2019-02-23T01:41:02.186Z,24.90
2019-02-23T01:42:02.166Z,25.10
2019-02-23T01:43:02.194Z,26.00
2019-02-23T01:44:02.155Z,25.20
2019-02-23T01:45:02.146Z,26.20
2019-02-23T01:46:02.119Z,25.00
2019-02-23T01:47:02.115Z,25.70
2019-02-23T01:48:02.142Z,26.10
2019-02-23T01:49:02.107Z,24.00
2019-02-23T01:50:02.088Z,25.80
2019-02-23T01:51:02.068Z,25.40
2019-02-23T01:52:02.055Z,26.20
2019-02-23T01:53:02.125Z,26.30
2019-02-23T01:54:02.049Z,25.40
2019-02-23T01:55:02.036Z,26.10
2019-02-23T01:56:02.012Z,26.70
2019-02-23T01:57:02.000Z,26.70
2019-02-23T01:58:02.032Z,24.40
2019-02-23T01:59:02.012Z,28.00
2019-02-23T02:00:03.001Z,24.60
2019-02-23T02:01:01.964Z,24.10
2019-02-23T02:02:01.960Z,23.70
2019-02-23T02:03:01.950Z,24.20
2019-02-23T02:04:01.954Z,25.10
2019-02-23T02:05:01.923Z,24.80
2019-02-23T02:06:01.911Z,23.80
2019-02-23T02:07:01.901Z,23.80
2019-02-23T02:08:01.887Z,24.00
2019-02-23T02:09:01.897Z,25.50
2019-02-23T02:10:01.867Z,25.30
2019-02-23T02:11:01.886Z,23.00
2019-02-23T02:12:01.847Z,22.90
2019-02-23T02:13:01.838Z,23.60
2019-02-23T02:14:01.852Z,22.30
2019-02-23T02:15:01.811Z,21.20
2019-02-23T02:16:01.790Z,22.40
2019-02-23T02:17:01.788Z,22.30
2019-02-23T02:18:01.785Z,22.80
2019-02-23T02:19:01.801Z,22.00
2019-02-23T02:20:10.522Z,21.70
2019-02-23T02:21:01.751Z,22.80
2019-02-23T02:22:01.739Z,21.10
2019-02-23T02:23:01.723Z,20.90
2019-02-23T02:24:01.734Z,20.50
2019-02-23T02:25:01.731Z,19.40
2019-02-23T02:27:10.896Z,31.50
2019-02-23T02:28:11.921Z,23.40
2019-02-23T02:29:11.905Z,21.40
2019-02-23T02:30:11.871Z,20.30
2019-02-23T02:31:11.847Z,19.70
2019-02-23T02:32:11.840Z,19.40
2019-02-23T02:33:11.832Z,18.70
2019-02-23T02:34:11.829Z,19.50
2019-02-23T02:35:11.811Z,19.10
2019-02-23T02:36:11.800Z,19.60
2019-02-23T02:37:11.783Z,19.00
2019-02-23T02:38:11.859Z,17.50
2019-02-23T02:39:11.792Z,18.10
2019-02-23T02:40:11.774Z,17.70
2019-02-23T02:41:11.736Z,19.50
2019-02-23T02:42:11.739Z,19.00
2019-02-23T02:43:11.725Z,18.50
2019-02-23T02:44:11.731Z,17.00
2019-02-23T02:45:11.709Z,19.30
2019-02-23T02:46:11.701Z,17.50
2019-02-23T02:47:11.676Z,16.90
2019-02-23T02:48:11.676Z,20.40
2019-02-23T02:49:11.679Z,19.00
2019-02-23T02:50:23.321Z,18.70
2019-02-23T02:51:11.633Z,18.30
2019-02-23T02:52:11.618Z,17.60
2019-02-23T02:53:11.611Z,17.20
2019-02-23T02:54:11.623Z,17.30
2019-02-23T02:55:11.634Z,18.00
2019-02-23T02:56:11.602Z,17.50
2019-02-23T02:57:11.592Z,17.20
2019-02-23T02:58:11.579Z,18.10
2019-02-23T02:59:11.602Z,16.30
2019-02-23T03:00:11.638Z,17.80
2019-02-23T03:01:12.133Z,18.50
2019-02-23T03:02:11.605Z,17.70
2019-02-23T03:03:11.563Z,19.40
2019-02-23T03:04:11.587Z,18.70
2019-02-23T03:05:12.141Z,18.40
2019-02-23T03:06:11.546Z,18.10
2019-02-23T03:07:11.693Z,17.70
2019-02-23T03:08:11.444Z,17.40
2019-02-23T03:09:11.460Z,17.40
2019-02-23T03:10:11.430Z,17.70
2019-02-23T03:11:11.407Z,18.70
2019-02-23T03:12:11.408Z,18.30
2019-02-23T03:13:11.390Z,18.00
2019-02-23T03:14:11.403Z,18.70
2019-02-23T03:15:11.370Z,18.40
2019-02-23T03:16:11.366Z,19.80
2019-02-23T03:17:11.359Z,19.30
2019-02-23T03:18:11.329Z,19.60
2019-02-23T03:19:11.353Z,17.50
2019-02-23T03:20:11.325Z,19.60
2019-02-23T03:21:11.305Z,19.10
2019-02-23T03:22:11.300Z,19.50
2019-02-23T03:23:11.284Z,18.40
2019-02-23T03:24:11.307Z,19.10
2019-02-23T03:25:11.261Z,18.50
2019-02-23T03:26:11.317Z,19.30
2019-02-23T03:27:11.243Z,18.20
2019-02-23T03:28:11.231Z,18.30
2019-02-23T03:29:11.245Z,18.80
2019-02-23T03:30:11.250Z,18.10
2019-02-23T03:31:11.204Z,21.20
2019-02-23T03:32:11.192Z,18.00
2019-02-23T03:33:11.184Z,19.30
2019-02-23T03:34:11.203Z,18.20
2019-02-23T03:35:11.644Z,19.40
2019-02-23T03:36:11.157Z,19.00
2019-02-23T03:37:11.149Z,19.40
2019-02-23T03:38:11.128Z,20.80
2019-02-23T03:39:11.137Z,19.60
2019-02-23T03:40:11.121Z,21.00
2019-02-23T03:41:11.094Z,19.80
2019-02-23T03:42:11.096Z,21.20
2019-02-23T03:43:11.072Z,19.20
2019-02-23T03:44:11.090Z,19.10
2019-02-23T03:45:11.038Z,19.00
2019-02-23T03:46:11.042Z,18.70
2019-02-23T03:47:11.020Z,20.20
2019-02-23T03:48:11.007Z,20.00
2019-02-23T03:49:11.002Z,19.30
2019-02-23T03:50:10.998Z,20.60
2019-02-23T03:51:10.976Z,18.50
2019-02-23T03:52:10.968Z,20.30
2019-02-23T03:53:10.960Z,20.30
2019-02-23T03:54:10.953Z,20.30
2019-02-23T03:55:10.978Z,20.50
2019-02-23T03:56:10.922Z,21.40
2019-02-23T03:57:10.914Z,20.70
2019-02-23T03:58:10.910Z,21.30
2019-02-23T03:59:10.897Z,20.70
2019-02-23T04:00:10.921Z,20.50
2019-02-23T04:01:10.881Z,20.80
2019-02-23T04:02:10.863Z,20.10
2019-02-23T04:03:10.855Z,22.00
2019-02-23T04:04:10.848Z,20.60
2019-02-23T04:05:10.852Z,22.00
2019-02-23T04:06:10.813Z,20.70
2019-02-23T04:07:10.799Z,23.00
2019-02-23T04:08:10.797Z,21.30
2019-02-23T04:09:10.787Z,21.20
2019-02-23T04:10:10.794Z,21.70
2019-02-23T04:11:10.762Z,21.20
2019-02-23T04:12:10.773Z,21.30
2019-02-23T04:13:10.739Z,21.40
2019-02-23T04:14:10.753Z,21.70
2019-02-23T04:15:10.744Z,21.80
2019-02-23T04:16:10.708Z,21.30
2019-02-23T04:17:10.701Z,21.00
2019-02-23T04:18:10.699Z,22.60
2019-02-23T04:19:10.697Z,21.70
2019-02-23T04:20:10.680Z,21.20
2019-02-23T04:21:10.656Z,21.70
2019-02-23T04:22:10.648Z,20.70
2019-02-23T04:23:10.635Z,22.10
2019-02-23T04:24:10.625Z,22.80
2019-02-23T04:25:10.648Z,21.50
2019-02-23T04:26:10.611Z,21.20
2019-02-23T04:28:19.786Z,20.40
2019-02-23T04:29:20.762Z,21.30
2019-02-23T04:30:20.788Z,21.80
2019-02-23T04:31:20.759Z,21.80
2019-02-23T04:32:20.741Z,23.30
2019-02-23T04:33:20.725Z,22.20
2019-02-23T04:34:20.719Z,20.80
2019-02-23T04:35:20.727Z,22.20
2019-02-23T04:36:20.700Z,21.70
2019-02-23T04:37:20.685Z,23.00
2019-02-23T04:38:20.682Z,23.20
2019-02-23T04:39:20.668Z,22.50
2019-02-23T04:40:20.676Z,22.40
2019-02-23T04:41:20.644Z,23.10
2019-02-23T04:42:20.637Z,22.10
2019-02-23T04:43:20.624Z,22.50
2019-02-23T04:44:20.611Z,22.50
2019-02-23T04:45:20.617Z,22.20
2019-02-23T04:46:20.596Z,21.60
2019-02-23T04:47:20.580Z,21.30
2019-02-23T04:48:20.568Z,21.60
2019-02-23T04:49:20.566Z,22.30
2019-02-23T04:50:20.573Z,21.10
2019-02-23T04:51:20.547Z,22.40
2019-02-23T04:52:20.530Z,22.40
2019-02-23T04:53:20.516Z,22.30
2019-02-23T04:54:20.500Z,22.50
2019-02-23T04:55:20.514Z,21.40
2019-02-23T04:56:20.481Z,21.80
2019-02-23T04:57:20.477Z,21.50
2019-02-23T04:58:20.472Z,23.80
2019-02-23T04:59:21.043Z,22.00
2019-02-23T05:00:20.462Z,23.30
2019-02-23T05:01:20.442Z,22.30
2019-02-23T05:02:20.421Z,24.40
2019-02-23T05:03:20.401Z,22.90
2019-02-23T05:04:20.396Z,22.00
2019-02-23T05:05:20.416Z,22.30
2019-02-23T05:06:20.383Z,21.40
2019-02-23T05:07:20.385Z,22.00
2019-02-23T05:08:20.360Z,21.50
2019-02-23T05:09:20.337Z,22.40
2019-02-23T05:10:20.351Z,21.90
2019-02-23T05:11:20.327Z,23.60
2019-02-23T05:12:20.319Z,23.80
2019-02-23T05:13:20.305Z,23.00
2019-02-23T05:14:20.296Z,23.90
2019-02-23T05:15:20.295Z,23.40
2019-02-23T05:16:20.274Z,22.80
2019-02-23T05:17:20.253Z,22.60
2019-02-23T05:18:20.256Z,22.20
2019-02-23T05:19:20.239Z,22.70
2019-02-23T05:20:20.257Z,21.80
2019-02-23T05:21:26.218Z,22.20
2019-02-23T05:22:20.202Z,23.40
2019-02-23T05:23:20.194Z,24.00
2019-02-23T05:24:20.192Z,23.00
2019-02-23T05:25:20.189Z,24.60
2019-02-23T05:26:20.177Z,23.00
2019-02-23T05:27:20.145Z,25.10
2019-02-23T05:28:20.145Z,22.50
2019-02-23T05:29:20.136Z,23.40
2019-02-23T05:30:20.147Z,23.20
2019-02-23T05:31:22.190Z,24.40
2019-02-23T05:32:20.093Z,22.30
2019-02-23T05:33:20.114Z,23.10
2019-02-23T05:34:20.081Z,24.30
2019-02-23T05:35:20.090Z,24.10
2019-02-23T05:36:20.073Z,24.20
2019-02-23T05:37:20.056Z,23.60
2019-02-23T05:38:20.038Z,23.80
2019-02-23T05:39:20.032Z,22.50
2019-02-23T05:40:20.008Z,23.80
2019-02-23T05:41:20.010Z,23.70
2019-02-23T05:42:20.002Z,25.20
2019-02-23T05:43:19.998Z,25.30
2019-02-23T05:44:19.978Z,23.00
2019-02-23T05:45:19.976Z,23.90
2019-02-23T05:46:19.977Z,24.70
2019-02-23T05:47:19.946Z,25.60
2019-02-23T05:48:19.922Z,26.80
2019-02-23T05:49:19.925Z,24.10
2019-02-23T05:50:19.912Z,26.40
2019-02-23T05:51:19.924Z,23.70
2019-02-23T05:52:19.899Z,25.40
2019-02-23T05:53:19.877Z,24.80
2019-02-23T05:54:19.865Z,25.60
2019-02-23T05:55:19.872Z,25.60
2019-02-23T05:56:19.866Z,27.00
2019-02-23T05:57:19.832Z,24.80
2019-02-23T05:58:19.818Z,25.10
2019-02-23T05:59:19.815Z,26.10
2019-02-23T06:00:19.821Z,25.30
2019-02-23T06:01:19.799Z,26.70
2019-02-23T06:02:19.815Z,25.40
2019-02-23T06:03:19.762Z,26.60
2019-02-23T06:04:19.765Z,26.10
2019-02-23T06:05:19.791Z,24.90
2019-02-23T06:06:19.743Z,26.20
2019-02-23T06:07:19.755Z,25.80
2019-02-23T06:08:19.734Z,25.90
2019-02-23T06:09:19.708Z,26.40
2019-02-23T06:10:19.699Z,25.20
2019-02-23T06:11:19.693Z,25.20
2019-02-23T06:12:19.699Z,25.20
2019-02-23T06:13:19.671Z,25.10
2019-02-23T06:14:19.683Z,25.50
2019-02-23T06:15:19.638Z,28.30
2019-02-23T06:16:19.629Z,26.80
2019-02-23T06:17:19.641Z,26.90
2019-02-23T06:18:19.615Z,26.10
2019-02-23T06:19:19.611Z,29.30
2019-02-23T06:20:19.588Z,27.20
2019-02-23T06:21:19.595Z,28.20
2019-02-23T06:22:19.595Z,28.30
2019-02-23T06:23:19.568Z,30.10
2019-02-23T06:24:19.549Z,26.60
2019-02-23T06:25:19.538Z,28.50
2019-02-23T06:26:19.547Z,28.10
2019-02-23T06:27:19.528Z,29.00
2019-02-23T06:29:29.132Z,25.80
2019-02-23T06:30:30.033Z,28.50
2019-02-23T06:31:30.021Z,27.80
2019-02-23T06:32:30.034Z,28.80
2019-02-23T06:33:30.015Z,26.40
2019-02-23T06:34:29.972Z,28.40
2019-02-23T06:35:29.980Z,29.00
2019-02-23T06:36:29.957Z,29.30
2019-02-23T06:37:29.967Z,29.10
2019-02-23T06:38:29.937Z,30.20
2019-02-23T06:39:29.924Z,29.80
2019-02-23T06:40:29.922Z,30.10
2019-02-23T06:41:29.916Z,31.50
2019-02-23T06:42:29.923Z,32.10
2019-02-23T06:43:29.901Z,30.80
2019-02-23T06:44:29.874Z,31.40
2019-02-23T06:45:29.867Z,30.70
2019-02-23T06:46:29.861Z,29.90
2019-02-23T06:47:29.876Z,32.00
2019-02-23T06:48:29.834Z,32.40
2019-02-23T06:49:29.828Z,29.30
2019-02-23T06:50:29.819Z,31.50
2019-02-23T06:51:29.808Z,32.10
2019-02-23T06:52:29.818Z,31.50
2019-02-23T06:53:29.787Z,33.70
2019-02-23T06:54:29.777Z,32.80
2019-02-23T06:55:29.770Z,31.20
2019-02-23T06:56:29.749Z,34.00
2019-02-23T06:57:29.748Z,34.20
2019-02-23T06:58:29.729Z,33.30
2019-02-23T06:59:29.720Z,32.10
2019-02-23T07:00:29.697Z,33.80
2019-02-23T07:01:29.698Z,32.40
2019-02-23T07:02:29.714Z,33.30
2019-02-23T07:03:29.685Z,33.20
2019-02-23T07:04:29.663Z,35.30
2019-02-23T07:05:29.653Z,34.00
2019-02-23T07:06:30.542Z,34.70
2019-02-23T07:07:29.659Z,34.40
2019-02-23T07:08:29.623Z,33.10
2019-02-23T07:09:29.624Z,35.80
2019-02-23T07:10:29.595Z,34.40
2019-02-23T07:11:29.582Z,35.60
2019-02-23T07:12:29.659Z,35.00
2019-02-23T07:13:29.560Z,34.70
2019-02-23T07:14:29.542Z,35.20
2019-02-23T07:15:29.548Z,35.30
2019-02-23T07:16:29.530Z,34.90
2019-02-23T07:17:29.539Z,35.80
2019-02-23T07:18:29.513Z,35.20
2019-02-23T07:19:29.498Z,37.90
2019-02-23T07:20:29.482Z,35.60
2019-02-23T07:21:29.476Z,34.40
2019-02-23T07:22:29.490Z,34.90
2019-02-23T07:23:29.466Z,36.20
2019-02-23T07:24:29.450Z,36.90
2019-02-23T07:25:29.432Z,38.10
2019-02-23T07:26:29.428Z,35.80
2019-02-23T07:27:29.437Z,38.00
2019-02-23T07:28:29.408Z,38.90
2019-02-23T07:29:29.384Z,35.20
2019-02-23T07:30:29.373Z,35.70
2019-02-23T07:31:29.375Z,35.30
2019-02-23T07:32:29.368Z,36.50
2019-02-23T07:33:32.730Z,36.10
2019-02-23T07:34:29.347Z,34.10
2019-02-23T07:35:29.320Z,37.10
2019-02-23T07:36:29.319Z,35.60
2019-02-23T07:37:29.329Z,37.20
2019-02-23T07:38:29.296Z,35.20
2019-02-23T07:39:29.285Z,37.50
2019-02-23T07:40:29.295Z,36.60
2019-02-23T07:41:29.254Z,37.30
2019-02-23T07:42:29.269Z,38.30
2019-02-23T07:43:29.239Z,38.90
2019-02-23T07:44:29.216Z,38.20
2019-02-23T07:45:29.230Z,37.10
2019-02-23T07:46:29.224Z,37.80
2019-02-23T07:47:29.215Z,36.50
2019-02-23T07:48:29.188Z,38.10
2019-02-23T07:49:29.174Z,40.40
2019-02-23T07:50:29.161Z,37.00
2019-02-23T07:51:29.160Z,37.50
2019-02-23T07:52:29.162Z,40.30
2019-02-23T07:53:29.131Z,37.90
2019-02-23T07:54:29.121Z,36.60
2019-02-23T07:55:29.132Z,37.10
2019-02-23T07:56:29.105Z,37.30
2019-02-23T07:57:29.120Z,36.70
2019-02-23T07:58:29.074Z,38.20
2019-02-23T07:59:29.073Z,37.50
2019-02-23T08:00:29.049Z,38.90
2019-02-23T08:01:29.049Z,38.10
2019-02-23T08:02:29.034Z,39.50
2019-02-23T08:03:29.022Z,36.10
2019-02-23T08:04:29.010Z,40.30
2019-02-23T08:05:29.003Z,38.30
2019-02-23T08:06:28.982Z,39.10
2019-02-23T08:07:28.971Z,37.50
2019-02-23T08:08:29.012Z,38.60
2019-02-23T08:09:28.962Z,36.70
2019-02-23T08:10:28.937Z,37.70
2019-02-23T08:11:28.925Z,38.70
2019-02-23T08:12:28.927Z,37.00
2019-02-23T08:13:28.929Z,38.20
2019-02-23T08:14:28.911Z,36.70
2019-02-23T08:15:28.888Z,38.10
2019-02-23T08:16:28.896Z,38.70
2019-02-23T08:17:28.874Z,35.30
2019-02-23T08:18:28.877Z,39.10
2019-02-23T08:19:28.861Z,38.70
2019-02-23T08:20:28.841Z,37.50
2019-02-23T08:21:28.826Z,37.70
2019-02-23T08:22:37.132Z,38.00
2019-02-23T08:23:28.836Z,37.20
2019-02-23T08:24:28.798Z,35.80
2019-02-23T08:25:28.788Z,38.50
2019-02-23T08:26:28.774Z,37.20
2019-02-23T08:27:28.763Z,38.10
2019-02-23T08:28:28.782Z,36.40
2019-02-23T08:30:37.937Z,35.90
2019-02-23T08:31:38.923Z,39.00
2019-02-23T08:32:38.915Z,37.50
2019-02-23T08:33:38.929Z,37.80
2019-02-23T08:34:38.890Z,36.50
2019-02-23T08:35:38.879Z,37.10
2019-02-23T08:36:38.864Z,36.70
2019-02-23T08:37:38.850Z,35.90
2019-02-23T08:38:38.863Z,37.80
2019-02-23T08:39:38.833Z,37.00
2019-02-23T08:40:38.828Z,37.10
2019-02-23T08:41:38.807Z,37.30
2019-02-23T08:42:38.809Z,37.70
2019-02-23T08:43:38.803Z,36.50
2019-02-23T08:44:38.775Z,37.80
2019-02-23T08:45:38.757Z,37.20
2019-02-23T08:46:38.747Z,37.70
2019-02-23T08:47:38.742Z,38.00
2019-02-23T08:48:38.767Z,38.10
2019-02-23T08:49:38.723Z,35.60
2019-02-23T08:50:38.717Z,34.60
2019-02-23T08:51:38.703Z,36.10
2019-02-23T08:52:48.714Z,37.60
2019-02-23T08:53:38.706Z,36.30
2019-02-23T08:54:38.677Z,36.20
2019-02-23T08:55:38.662Z,34.70
2019-02-23T08:56:38.651Z,35.70
2019-02-23T08:57:38.649Z,35.30
2019-02-23T08:58:38.639Z,35.00
2019-02-23T08:59:38.633Z,35.90
2019-02-23T09:00:38.627Z,35.40
2019-02-23T09:01:38.585Z,35.30
2019-02-23T09:02:38.575Z,37.40
2019-02-23T09:03:38.587Z,35.60
2019-02-23T09:04:38.562Z,35.10
2019-02-23T09:05:38.549Z,35.60
2019-02-23T09:06:38.559Z,36.10
2019-02-23T09:07:38.550Z,37.60
2019-02-23T09:08:38.542Z,36.10
2019-02-23T09:09:38.516Z,37.80
2019-02-23T09:10:38.496Z,34.40
2019-02-23T09:11:38.485Z,34.90
2019-02-23T09:12:38.476Z,35.90
2019-02-23T09:13:38.481Z,34.70
2019-02-23T09:14:38.455Z,36.70
2019-02-23T09:15:38.441Z,34.40
2019-02-23T09:16:38.426Z,36.80
2019-02-23T09:17:38.416Z,35.30
2019-02-23T09:18:38.434Z,35.40
2019-02-23T09:19:38.401Z,34.70
2019-02-23T09:20:38.383Z,36.70
2019-02-23T09:21:38.395Z,34.30
2019-02-23T09:22:38.441Z,34.80
2019-02-23T09:23:38.391Z,34.60
2019-02-23T09:24:38.337Z,34.90
2019-02-23T09:25:38.330Z,33.30
2019-02-23T09:26:38.309Z,34.40
2019-02-23T09:27:38.323Z,34.80
2019-02-23T09:28:38.342Z,35.00
2019-02-23T09:29:38.310Z,35.80
2019-02-23T09:30:38.285Z,33.70
2019-02-23T09:31:38.262Z,34.00
2019-02-23T09:32:38.256Z,34.00
2019-02-23T09:33:38.272Z,36.00
2019-02-23T09:34:38.234Z,36.00
2019-02-23T09:35:38.211Z,35.60
2019-02-23T09:36:38.221Z,33.90
2019-02-23T09:37:38.189Z,34.30
2019-02-23T09:38:38.206Z,32.90
2019-02-23T09:39:38.176Z,33.90
2019-02-23T09:40:38.168Z,32.50
2019-02-23T09:41:38.161Z,33.20
2019-02-23T09:42:38.149Z,33.60
2019-02-23T09:43:38.152Z,33.10
2019-02-23T09:44:38.126Z,31.20
2019-02-23T09:45:38.100Z,33.70
2019-02-23T09:46:38.095Z,32.80
2019-02-23T09:47:38.084Z,36.50
2019-02-23T09:48:38.119Z,33.70
2019-02-23T09:49:38.071Z,31.30
2019-02-23T09:50:38.067Z,33.90
2019-02-23T09:51:38.042Z,31.60
2019-02-23T09:52:38.041Z,31.20
2019-02-23T09:53:38.017Z,33.90
2019-02-23T09:54:38.021Z,34.10
2019-02-23T09:55:38.000Z,32.40
2019-02-23T09:56:37.989Z,32.00
2019-02-23T09:57:37.998Z,31.20
2019-02-23T09:58:37.970Z,32.40
2019-02-23T09:59:40.238Z,32.80
2019-02-23T10:00:37.949Z,31.20
2019-02-23T10:01:37.951Z,31.80
2019-02-23T10:02:37.925Z,32.30
2019-02-23T10:03:37.917Z,32.50
2019-02-23T10:04:37.896Z,31.60
2019-02-23T10:05:38.323Z,33.50
2019-02-23T10:06:37.884Z,31.70
2019-02-23T10:07:37.875Z,31.50
2019-02-23T10:08:37.859Z,31.30
2019-02-23T10:09:37.863Z,30.90
2019-02-23T10:10:37.856Z,34.00
2019-02-23T10:11:37.840Z,33.80
2019-02-23T10:12:37.813Z,31.70
2019-02-23T10:13:37.805Z,31.10
2019-02-23T10:14:37.787Z,33.60
2019-02-23T10:15:37.811Z,30.30
2019-02-23T10:16:37.785Z,30.10
2019-02-23T10:17:37.752Z,31.00
2019-02-23T10:18:37.751Z,29.60
2019-02-23T10:19:37.743Z,31.10
2019-02-23T10:20:37.762Z,31.30
2019-02-23T10:21:37.733Z,31.10
2019-02-23T10:22:39.663Z,30.70
2019-02-23T10:23:37.714Z,30.60
2019-02-23T10:24:37.685Z,30.70
2019-02-23T10:25:37.688Z,32.60
2019-02-23T10:26:37.665Z,31.20
2019-02-23T10:27:37.657Z,31.80
2019-02-23T10:28:37.645Z,30.30
2019-02-23T10:29:37.628Z,30.20
2019-02-23T10:31:46.841Z,23.80
2019-02-23T10:32:47.799Z,27.70
2019-02-23T10:33:48.030Z,28.00
2019-02-23T10:34:47.776Z,28.70
2019-02-23T10:35:47.783Z,30.10
2019-02-23T10:36:47.781Z,30.20
2019-02-23T10:37:47.752Z,26.70
2019-02-23T10:38:47.727Z,26.70
2019-02-23T10:39:47.722Z,27.30
2019-02-23T10:40:47.712Z,28.50
2019-02-23T10:41:47.720Z,26.90
2019-02-23T10:42:47.698Z,28.60
2019-02-23T10:43:47.692Z,27.70
2019-02-23T10:44:47.662Z,27.00
2019-02-23T10:45:47.658Z,28.60
2019-02-23T10:46:47.675Z,31.20
2019-02-23T10:47:50.176Z,27.30
2019-02-23T10:48:47.623Z,27.00
2019-02-23T10:49:47.617Z,29.60
2019-02-23T10:50:47.619Z,28.50
2019-02-23T10:51:47.626Z,26.80
2019-02-23T10:52:47.590Z,28.30
2019-02-23T10:53:47.578Z,31.00
2019-02-23T10:54:47.571Z,27.10
2019-02-23T10:55:47.549Z,27.70
2019-02-23T10:56:47.554Z,27.00
2019-02-23T10:57:47.526Z,27.40
2019-02-23T10:58:47.514Z,27.10
2019-02-23T10:59:47.508Z,26.60
2019-02-23T11:00:47.491Z,25.30
2019-02-23T11:01:47.499Z,27.50
2019-02-23T11:02:47.478Z,26.40
2019-02-23T11:03:47.458Z,26.90
2019-02-23T11:04:47.447Z,25.80
2019-02-23T11:05:47.446Z,26.40
2019-02-23T11:06:47.452Z,27.60
2019-02-23T11:07:47.416Z,27.60
2019-02-23T11:08:47.405Z,27.40
2019-02-23T11:09:47.399Z,26.10
2019-02-23T11:10:47.390Z,25.40
2019-02-23T11:11:48.477Z,26.50
2019-02-23T11:12:47.363Z,26.50
2019-02-23T11:13:47.350Z,24.30
2019-02-23T11:14:47.341Z,27.40
2019-02-23T11:15:47.339Z,25.10
2019-02-23T11:16:47.335Z,25.30
2019-02-23T11:17:47.324Z,26.90
2019-02-23T11:18:47.295Z,26.40
2019-02-23T11:19:47.291Z,26.00
2019-02-23T11:20:47.286Z,24.90
2019-02-23T11:21:47.300Z,27.10
2019-02-23T11:22:47.271Z,27.50
2019-02-23T11:23:47.438Z,26.20
2019-02-23T11:24:47.241Z,25.60
2019-02-23T11:25:47.218Z,24.70
2019-02-23T11:26:47.247Z,25.70
2019-02-23T11:27:47.201Z,24.20
2019-02-23T11:28:47.199Z,24.70
2019-02-23T11:29:47.189Z,23.30
2019-02-23T11:30:47.173Z,24.80
2019-02-23T11:31:47.185Z,23.60
2019-02-23T11:32:47.147Z,23.50
2019-02-23T11:33:47.144Z,24.50
2019-02-23T11:34:47.144Z,23.20
2019-02-23T11:35:47.118Z,23.00
2019-02-23T11:36:47.130Z,23.90
2019-02-23T11:37:47.103Z,23.30
2019-02-23T11:38:47.082Z,23.30
2019-02-23T11:39:47.079Z,24.50
2019-02-23T11:40:47.056Z,23.80
2019-02-23T11:41:47.083Z,23.50
2019-02-23T11:42:47.041Z,23.40
2019-02-23T11:43:47.057Z,24.00
2019-02-23T11:44:47.012Z,21.40
2019-02-23T11:45:47.015Z,22.20
2019-02-23T11:46:59.793Z,21.60
2019-02-23T11:47:46.989Z,22.40
2019-02-23T11:48:46.973Z,21.60
2019-02-23T11:49:46.962Z,22.40
2019-02-23T11:50:46.969Z,24.40
2019-02-23T11:51:46.948Z,22.90
2019-02-23T11:52:47.018Z,21.00
2019-02-23T11:53:54.607Z,23.30
2019-02-23T11:54:46.904Z,23.30
2019-02-23T11:55:46.906Z,24.20
2019-02-23T11:56:46.895Z,24.40
2019-02-23T11:57:46.906Z,22.50
2019-02-23T11:58:46.868Z,23.00
2019-02-23T11:59:46.866Z,24.00
2019-02-23T12:00:46.849Z,24.50
2019-02-23T12:01:46.841Z,26.10
2019-02-23T12:02:52.571Z,24.20
2019-02-23T12:03:46.825Z,24.60
2019-02-23T12:04:46.805Z,24.20
2019-02-23T12:05:46.814Z,23.10
2019-02-23T12:06:46.788Z,22.30
2019-02-23T12:07:46.802Z,23.70
2019-02-23T12:08:46.771Z,22.10
2019-02-23T12:09:46.814Z,23.60
2019-02-23T12:10:46.756Z,23.40
2019-02-23T12:11:46.738Z,24.60
2019-02-23T12:12:46.748Z,25.10
2019-02-23T12:13:46.711Z,22.40
2019-02-23T12:14:46.705Z,22.40
2019-02-23T12:15:46.693Z,23.50
2019-02-23T12:16:46.671Z,22.80
2019-02-23T12:17:46.686Z,22.70
2019-02-23T12:18:46.647Z,22.90
2019-02-23T12:19:46.638Z,21.80
2019-02-23T12:20:46.633Z,22.10
2019-02-23T12:21:46.627Z,22.70
2019-02-23T12:22:46.631Z,23.10
2019-02-23T12:23:46.599Z,23.40
2019-02-23T12:24:46.581Z,22.30
2019-02-23T12:25:46.587Z,22.80
2019-02-23T12:26:46.573Z,23.00
2019-02-23T12:27:46.589Z,22.50
2019-02-23T12:28:46.549Z,23.40
2019-02-23T12:29:46.546Z,23.00
2019-02-23T12:30:46.529Z,23.60
2019-02-23T12:32:55.838Z,18.60
2019-02-23T12:33:56.704Z,20.60
2019-02-23T12:34:56.681Z,22.10
2019-02-23T12:35:56.662Z,21.00
2019-02-23T12:36:57.611Z,19.80
2019-02-23T12:37:56.698Z,19.50
2019-02-23T12:38:56.691Z,19.80
2019-02-23T12:39:56.670Z,20.80
2019-02-23T12:40:56.639Z,19.90
2019-02-23T12:41:56.660Z,20.20
2019-02-23T12:42:56.621Z,18.50
2019-02-23T12:43:56.602Z,20.30
2019-02-23T12:44:56.609Z,20.20
2019-02-23T12:45:56.632Z,22.50
2019-02-23T12:46:56.555Z,20.50
2019-02-23T12:47:56.588Z,19.80
2019-02-23T12:48:56.578Z,19.50
2019-02-23T12:49:56.550Z,19.40
2019-02-23T12:50:56.515Z,18.30
2019-02-23T12:51:56.516Z,18.90
2019-02-23T12:52:56.513Z,19.20
2019-02-23T12:53:56.527Z,18.50
2019-02-23T12:54:56.480Z,19.40
2019-02-23T12:55:56.480Z,19.20
2019-02-23T12:56:56.467Z,18.20
2019-02-23T12:57:56.460Z,18.20
2019-02-23T12:58:56.441Z,17.90
2019-02-23T12:59:56.418Z,18.10
2019-02-23T13:00:56.407Z,19.50